createdAt,value
2019-04-06T00:00:25.332Z,100335.20
2019-04-06T00:02:55.583Z,100332.92
2019-04-06T00:05:25.700Z,100328.53
2019-04-06T00:07:55.881Z,100324.21
2019-04-06T00:10:26.040Z,100319.47
2019-04-06T00:12:57.255Z,100327.89
2019-04-06T00:15:27.398Z,100321.25
2019-04-06T00:17:57.590Z,100328.86
2019-04-06T00:20:27.723Z,100332.83
2019-04-06T00:22:57.937Z,100338.72
2019-04-06T00:25:28.087Z,100336.97
2019-04-06T00:27:58.449Z,100335.91
2019-04-06T00:30:31.187Z,100338.50
2019-04-06T00:33:07.837Z,100339.75
2019-04-06T00:35:38.077Z,100334.01
2019-04-06T00:38:08.248Z,100337.29
2019-04-06T00:40:38.495Z,100330.40
2019-04-06T00:43:08.892Z,100334.86
2019-04-06T00:45:39.217Z,100340.77
2019-04-06T00:48:09.478Z,100337.73
2019-04-06T00:50:39.650Z,100348.42
2019-04-06T00:53:09.812Z,100334.23
2019-04-06T00:55:39.989Z,100344.70
2019-04-06T00:58:10.260Z,100341.17
2019-04-06T01:00:40.486Z,100344.56
2019-04-06T01:03:10.764Z,100338.13
2019-04-06T01:05:40.903Z,100339.42
2019-04-06T01:08:11.129Z,100334.06
2019-04-06T01:10:41.748Z,100345.66
2019-04-06T01:13:12.900Z,100343.54
2019-04-06T01:15:43.171Z,100343.08
2019-04-06T01:18:13.232Z,100346.18
2019-04-06T01:20:43.367Z,100349.19
2019-04-06T01:23:13.518Z,100345.20
2019-04-06T01:25:43.705Z,100344.29
2019-04-06T01:28:13.909Z,100347.73
2019-04-06T01:30:44.061Z,100358.22
2019-04-06T01:33:14.237Z,100358.75
2019-04-06T01:35:44.405Z,100360.41
2019-04-06T01:38:16.695Z,100355.55
2019-04-06T01:40:46.948Z,100357.23
2019-04-06T01:43:17.165Z,100356.47
2019-04-06T01:45:47.413Z,100359.45
2019-04-06T01:48:17.554Z,100356.08
2019-04-06T01:50:47.774Z,100357.77
2019-04-06T01:53:17.919Z,100351.46
2019-04-06T01:55:49.181Z,100348.52
2019-04-06T01:58:19.292Z,100352.48
2019-04-06T02:01:02.970Z,100351.98
2019-04-06T02:03:33.107Z,100351.23
2019-04-06T02:06:03.861Z,100356.84
2019-04-06T02:08:34.012Z,100351.98
2019-04-06T02:11:04.532Z,100352.84
2019-04-06T02:13:34.688Z,100356.08
2019-04-06T02:16:06.227Z,100351.26
2019-04-06T02:18:37.251Z,100358.13
2019-04-06T02:21:07.413Z,100356.74
2019-04-06T02:23:37.665Z,100349.78
2019-04-06T02:26:07.788Z,100339.16
2019-04-06T02:28:37.932Z,100347.66
2019-04-06T02:31:27.062Z,100357.67
2019-04-06T02:34:19.086Z,100350.08
2019-04-06T02:37:14.211Z,100351.77
2019-04-06T02:39:55.113Z,100343.73
2019-04-06T02:42:40.617Z,100341.20
2019-04-06T02:45:11.063Z,100341.73
2019-04-06T02:47:41.201Z,100335.19
2019-04-06T02:50:11.383Z,100334.23
2019-04-06T02:52:41.560Z,100327.70
2019-04-06T02:55:14.442Z,100329.18
2019-04-06T02:57:44.593Z,100323.01
2019-04-06T03:00:14.925Z,100338.98
2019-04-06T03:02:45.060Z,100350.95
2019-04-06T03:05:15.216Z,100346.53
2019-04-06T03:07:45.386Z,100348.22
2019-04-06T03:10:15.608Z,100346.66
2019-04-06T03:12:45.778Z,100345.42
2019-04-06T03:15:17.611Z,100342.82
2019-04-06T03:17:47.781Z,100339.92
2019-04-06T03:20:17.945Z,100345.27
2019-04-06T03:22:48.124Z,100339.64
2019-04-06T03:25:18.285Z,100335.73
2019-04-06T03:27:48.536Z,100333.87
2019-04-06T03:30:18.617Z,100333.62
2019-04-06T03:32:49.820Z,100334.42
2019-04-06T03:35:19.981Z,100332.70
2019-04-06T03:37:50.179Z,100333.62
2019-04-06T03:40:20.326Z,100334.05
2019-04-06T03:42:50.524Z,100331.38
2019-04-06T03:45:20.672Z,100336.20
2019-04-06T03:47:50.882Z,100337.09
2019-04-06T03:50:21.206Z,100339.06
2019-04-06T03:52:51.625Z,100345.69
2019-04-06T03:55:21.734Z,100343.91
2019-04-06T03:57:51.867Z,100336.31
2019-04-06T04:00:21.895Z,100334.78
2019-04-06T04:02:52.263Z,100329.05
2019-04-06T04:05:22.385Z,100327.01
2019-04-06T04:07:55.748Z,100317.72
2019-04-06T04:10:34.299Z,100320.73
2019-04-06T04:13:05.218Z,100327.84
2019-04-06T04:15:35.436Z,100320.84
2019-04-06T04:18:06.035Z,100315.51
2019-04-06T04:20:37.750Z,100313.55
2019-04-06T04:23:08.136Z,100315.77
2019-04-06T04:25:38.383Z,100307.85
2019-04-06T04:28:08.553Z,100315.78
2019-04-06T04:30:38.920Z,100320.17
2019-04-06T04:33:09.064Z,100316.21
2019-04-06T04:35:39.240Z,100313.63
2019-04-06T04:38:09.643Z,100312.39
2019-04-06T04:40:40.734Z,100306.89
2019-04-06T04:43:11.135Z,100309.80
2019-04-06T04:45:41.211Z,100314.27
2019-04-06T04:48:11.489Z,100311.20
2019-04-06T04:50:41.825Z,100309.95
2019-04-06T04:53:12.085Z,100308.11
2019-04-06T04:55:42.362Z,100304.13
2019-04-06T04:58:12.564Z,100304.59
2019-04-06T05:00:42.731Z,100308.97
2019-04-06T05:03:12.884Z,100313.12
2019-04-06T05:05:43.109Z,100312.94
2019-04-06T05:08:13.343Z,100317.81
2019-04-06T05:10:43.682Z,100316.89
2019-04-06T05:13:13.934Z,100316.95
2019-04-06T05:16:21.832Z,100320.91
2019-04-06T05:18:52.082Z,100311.34
2019-04-06T05:21:24.989Z,100320.64
2019-04-06T05:23:55.166Z,100324.47
2019-04-06T05:26:25.440Z,100325.73
2019-04-06T05:28:55.587Z,100335.87
2019-04-06T05:31:25.921Z,100337.15
2019-04-06T05:33:56.105Z,100337.20
2019-04-06T05:36:26.292Z,100340.67
2019-04-06T05:38:56.463Z,100342.42
2019-04-06T05:41:26.697Z,100339.06
2019-04-06T05:43:56.793Z,100343.80
2019-04-06T05:46:29.853Z,100344.73
2019-04-06T05:48:59.954Z,100346.92
2019-04-06T05:51:36.211Z,100337.21
2019-04-06T05:54:06.448Z,100348.50
2019-04-06T05:56:36.606Z,100351.89
2019-04-06T05:59:10.057Z,100345.46
2019-04-06T06:01:40.523Z,100346.66
2019-04-06T06:04:10.796Z,100348.41
2019-04-06T06:06:41.628Z,100348.38
2019-04-06T06:09:13.622Z,100357.33
2019-04-06T06:11:43.896Z,100352.19
2019-04-06T06:14:14.369Z,100351.09
2019-04-06T06:16:44.542Z,100345.66
2019-04-06T06:19:15.139Z,100345.33
2019-04-06T06:21:45.307Z,100349.13
2019-04-06T06:24:15.506Z,100352.63
2019-04-06T06:26:45.683Z,100350.82
2019-04-06T06:29:15.822Z,100351.63
2019-04-06T06:31:45.986Z,100351.92
2019-04-06T06:34:16.090Z,100352.52
2019-04-06T06:36:46.263Z,100351.05
2019-04-06T06:39:16.533Z,100352.57
2019-04-06T06:41:47.119Z,100347.27
2019-04-06T06:44:19.224Z,100345.17
2019-04-06T06:46:49.476Z,100350.45
2019-04-06T06:49:19.647Z,100343.52
2019-04-06T06:51:50.018Z,100343.00
2019-04-06T06:54:20.162Z,100348.22
2019-04-06T06:56:53.454Z,100345.61
2019-04-06T06:59:23.643Z,100345.89
2019-04-06T07:01:53.877Z,100351.71
2019-04-06T07:04:24.058Z,100350.64
2019-04-06T07:06:54.240Z,100354.91
2019-04-06T07:09:24.384Z,100351.98
2019-04-06T07:11:54.565Z,100346.56
2019-04-06T07:14:24.693Z,100355.36
2019-04-06T07:16:54.917Z,100349.13
2019-04-06T07:19:25.104Z,100351.23
2019-04-06T07:21:55.491Z,100352.11
2019-04-06T07:24:25.759Z,100355.86
2019-04-06T07:26:55.977Z,100356.79
2019-04-06T07:29:26.126Z,100354.84
2019-04-06T07:31:56.354Z,100353.69
2019-04-06T07:34:26.525Z,100352.80
2019-04-06T07:36:56.672Z,100359.33
2019-04-06T07:39:26.902Z,100356.95
2019-04-06T07:41:57.107Z,100357.69
2019-04-06T07:44:27.342Z,100362.86
2019-04-06T07:46:57.533Z,100354.58
2019-04-06T07:49:31.293Z,100363.14
2019-04-06T07:52:01.536Z,100360.11
2019-04-06T07:54:31.705Z,100357.57
2019-04-06T07:57:02.030Z,100363.20
2019-04-06T07:59:32.197Z,100366.85
2019-04-06T08:02:02.388Z,100365.10
2019-04-06T08:04:32.720Z,100359.79
2019-04-06T08:07:02.957Z,100368.35
2019-04-06T08:09:33.155Z,100369.91
2019-04-06T08:12:08.775Z,100363.69
2019-04-06T08:14:39.261Z,100362.44
2019-04-06T08:17:09.379Z,100359.89
2019-04-06T08:19:39.571Z,100360.08
2019-04-06T08:22:23.243Z,100364.50
2019-04-06T08:24:53.563Z,100358.99
2019-04-06T08:27:23.852Z,100355.79
2019-04-06T08:29:54.020Z,100352.05
2019-04-06T08:32:24.525Z,100353.81
2019-04-06T08:34:54.767Z,100357.41
2019-04-06T08:37:28.341Z,100355.94
2019-04-06T08:39:58.702Z,100355.11
2019-04-06T08:42:28.885Z,100348.08
2019-04-06T08:44:59.217Z,100358.73
2019-04-06T08:47:29.305Z,100355.73
2019-04-06T08:49:59.599Z,100352.23
2019-04-06T08:52:29.799Z,100353.62
2019-04-06T08:55:00.000Z,100364.79
2019-04-06T08:57:30.437Z,100359.77
2019-04-06T09:00:01.822Z,100355.42
2019-04-06T09:02:33.709Z,100364.75
2019-04-06T09:05:06.198Z,100361.09
2019-04-06T09:07:36.341Z,100352.95
2019-04-06T09:10:06.648Z,100353.41
2019-04-06T09:12:37.041Z,100351.56
2019-04-06T09:15:07.844Z,100358.15
2019-04-06T09:17:38.096Z,100353.73
2019-04-06T09:20:08.639Z,100353.16
2019-04-06T09:22:40.408Z,100345.23
2019-04-06T09:25:10.611Z,100343.11
2019-04-06T09:27:40.759Z,100340.30
2019-04-06T09:30:10.919Z,100344.24
2019-04-06T09:32:41.434Z,100341.34
2019-04-06T09:35:13.278Z,100338.11
2019-04-06T09:37:43.421Z,100340.98
2019-04-06T09:40:13.827Z,100339.33
2019-04-06T09:42:44.093Z,100336.84
2019-04-06T09:45:32.053Z,100336.70
2019-04-06T09:48:11.645Z,100334.23
2019-04-06T09:51:13.058Z,100334.28
2019-04-06T09:54:06.188Z,100328.85
2019-04-06T09:56:54.918Z,100321.97
2019-04-06T09:59:37.592Z,100317.22
2019-04-06T10:02:29.981Z,100324.00
2019-04-06T10:05:19.270Z,100314.33
2019-04-06T10:08:12.880Z,100317.98
2019-04-06T10:11:00.130Z,100307.59
2019-04-06T10:13:58.043Z,100307.70
2019-04-06T10:16:45.850Z,100304.62
2019-04-06T10:19:43.806Z,100299.45
2019-04-06T10:22:31.710Z,100303.98
2019-04-06T10:25:35.845Z,100299.61
2019-04-06T10:28:34.982Z,100303.38
2019-04-06T10:31:29.932Z,100292.80
2019-04-06T10:34:25.067Z,100295.19
2019-04-06T10:37:18.589Z,100296.83
2019-04-06T10:40:05.714Z,100290.79
2019-04-06T10:42:53.714Z,100293.39
2019-04-06T10:45:54.796Z,100291.14
2019-04-06T10:48:33.942Z,100294.41
2019-04-06T10:51:25.894Z,100298.03
2019-04-06T10:54:14.015Z,100298.50
2019-04-06T10:57:02.521Z,100298.37
2019-04-06T10:59:59.902Z,100301.44
2019-04-06T11:02:37.396Z,100287.52
2019-04-06T11:05:38.764Z,100289.98
2019-04-06T11:08:18.408Z,100285.46
2019-04-06T11:11:20.625Z,100281.03
2019-04-06T11:14:09.823Z,100282.77
2019-04-06T11:16:59.028Z,100278.52
2019-04-06T11:19:38.338Z,100281.75
2019-04-06T11:22:30.485Z,100286.68
2019-04-06T11:25:12.141Z,100280.49
2019-04-06T11:27:52.320Z,100284.34
2019-04-06T11:30:40.048Z,100265.94
2019-04-06T11:33:41.212Z,100270.71
2019-04-06T11:36:22.793Z,100266.37
2019-04-06T11:39:18.088Z,100271.87
2019-04-06T11:42:07.186Z,100266.66
2019-04-06T11:44:56.419Z,100267.09
2019-04-06T11:47:48.444Z,100263.84
2019-04-06T11:50:38.871Z,100264.09
2019-04-06T11:53:43.579Z,100260.70
2019-04-06T11:56:33.007Z,100254.65
2019-04-06T11:59:31.002Z,100255.34
2019-04-06T12:02:39.013Z,100248.99
2019-04-06T12:05:17.508Z,100252.23
2019-04-06T12:08:11.511Z,100245.47
2019-04-06T12:11:01.405Z,100247.45
2019-04-06T12:13:55.970Z,100243.36
2019-04-06T12:16:35.735Z,100246.52
2019-04-06T12:19:31.009Z,100241.50
2019-04-06T12:22:32.715Z,100241.34
2019-04-06T12:25:11.232Z,100236.95
2019-04-06T12:27:56.971Z,100242.29
2019-04-06T12:30:50.556Z,100238.81
2019-04-06T12:33:33.938Z,100232.18
2019-04-06T12:36:26.331Z,100227.94
2019-04-06T12:39:14.148Z,100224.25
2019-04-06T12:42:02.003Z,100223.97
2019-04-06T12:44:51.192Z,100220.81
2019-04-06T12:47:43.433Z,100212.13
2019-04-06T12:50:41.777Z,100212.50
2019-04-06T12:53:37.721Z,100216.11
2019-04-06T12:56:32.619Z,100208.75
2019-04-06T12:59:31.167Z,100203.05
2019-04-06T13:02:20.348Z,100203.62
2019-04-06T13:05:13.325Z,100206.84
2019-04-06T13:08:08.075Z,100203.84
2019-04-06T13:10:47.267Z,100200.98
2019-04-06T13:13:42.538Z,100194.61
2019-04-06T13:16:30.585Z,100197.96
2019-04-06T13:19:25.903Z,100198.27
2019-04-06T13:22:27.181Z,100191.56
2019-04-06T13:25:07.545Z,100190.38
2019-04-06T13:28:09.043Z,100195.58
2019-04-06T13:31:04.145Z,100190.48
2019-04-06T13:33:53.611Z,100186.37
2019-04-06T13:36:42.799Z,100186.68
2019-04-06T13:39:37.844Z,100179.41
2019-04-06T13:42:42.464Z,100171.99
2019-04-06T13:45:26.044Z,100172.51
2019-04-06T13:48:13.775Z,100164.57
2019-04-06T13:51:18.309Z,100164.20
2019-04-06T13:54:06.879Z,100161.16
2019-04-06T13:57:00.909Z,100169.55
2019-04-06T13:59:48.822Z,100162.95
2019-04-06T14:02:29.372Z,100164.11
2019-04-06T14:05:18.532Z,100156.88
2019-04-06T14:07:55.422Z,100159.37
2019-04-06T14:10:35.499Z,100150.77
2019-04-06T14:13:27.809Z,100151.86
2019-04-06T14:16:32.332Z,100159.16
2019-04-06T14:19:19.626Z,100152.36
2019-04-06T14:22:17.619Z,100152.56
2019-04-06T14:25:01.516Z,100153.31
2019-04-06T14:27:53.612Z,100143.09
2019-04-06T14:30:51.693Z,100143.59
2019-04-06T14:33:39.978Z,100148.55
2019-04-06T14:36:21.296Z,100137.19
2019-04-06T14:39:08.560Z,100138.33
2019-04-06T14:41:50.129Z,100131.47
2019-04-06T14:44:40.768Z,100133.00
2019-04-06T14:47:36.019Z,100131.56
2019-04-06T14:50:21.405Z,100129.47
2019-04-06T14:53:17.254Z,100126.97
2019-04-06T14:55:52.590Z,100130.73
2019-04-06T14:58:38.408Z,100118.66
2019-04-06T15:01:18.403Z,100129.09
2019-04-06T15:04:07.147Z,100129.09
2019-04-06T15:06:54.866Z,100126.22
2019-04-06T15:09:46.760Z,100124.10
2019-04-06T15:12:24.771Z,100127.53
2019-04-06T15:15:14.423Z,100120.06
2019-04-06T15:18:02.374Z,100121.79
2019-04-06T15:20:52.718Z,100123.31
2019-04-06T15:23:32.306Z,100114.10
2019-04-06T15:26:18.308Z,100113.61
2019-04-06T15:29:05.678Z,100114.05
2019-04-06T15:31:53.538Z,100120.09
2019-04-06T15:34:36.994Z,100114.13
2019-04-06T15:37:19.836Z,100112.22
2019-04-06T15:40:15.000Z,100102.72
2019-04-06T15:43:02.911Z,100107.88
2019-04-06T15:45:55.158Z,100100.39
2019-04-06T15:48:43.016Z,100106.84
2019-04-06T15:51:30.941Z,100096.48
2019-04-06T15:54:22.861Z,100100.35
2019-04-06T15:57:02.224Z,100096.86
2019-04-06T15:59:57.356Z,100097.13
2019-04-06T16:02:33.922Z,100093.98
2019-04-06T16:05:26.367Z,100095.91
2019-04-06T16:08:14.391Z,100092.80
2019-04-06T16:11:06.666Z,100096.89
2019-04-06T16:13:52.576Z,100093.33
2019-04-06T16:16:42.134Z,100097.69
2019-04-06T16:19:31.779Z,100098.02
2019-04-06T16:22:26.988Z,100097.28
2019-04-06T16:25:22.247Z,100101.31
2019-04-06T16:28:07.262Z,100090.11
2019-04-06T16:31:02.511Z,100093.80
2019-04-06T16:33:48.326Z,100092.98
2019-04-06T16:36:49.901Z,100091.16
2019-04-06T16:39:54.100Z,100082.86
2019-04-06T16:42:40.929Z,100088.14
2019-04-06T16:45:23.088Z,100085.56
2019-04-06T16:48:12.281Z,100090.23
2019-04-06T16:51:00.111Z,100084.70
2019-04-06T16:53:52.272Z,100086.41
2019-04-06T16:56:45.193Z,100080.52
2019-04-06T16:59:33.033Z,100087.50
2019-04-06T17:02:24.449Z,100084.84
2019-04-06T17:05:11.250Z,100089.87
2019-04-06T17:07:49.922Z,100087.88
2019-04-06T17:10:45.588Z,100092.75
2019-04-06T17:13:38.625Z,100095.64
2019-04-06T17:16:18.987Z,100093.44
2019-04-06T17:19:07.089Z,100095.77
2019-04-06T17:21:55.127Z,100095.05
2019-04-06T17:24:42.113Z,100096.01
2019-04-06T17:27:37.434Z,100099.24
2019-04-06T17:30:23.332Z,100099.98
2019-04-06T17:33:05.335Z,100097.89
2019-04-06T17:35:53.391Z,100098.25
2019-04-06T17:38:45.209Z,100094.50
2019-04-06T17:41:52.479Z,100092.38
2019-04-06T17:44:47.681Z,100100.87
2019-04-06T17:47:49.096Z,100100.55
2019-04-06T17:50:27.800Z,100103.08
2019-04-06T17:53:29.015Z,100105.08
2019-04-06T17:56:36.376Z,100102.72
2019-04-06T17:59:24.772Z,100103.78
2019-04-06T18:02:23.204Z,100100.52
2019-04-06T18:05:24.438Z,100103.78
2019-04-06T18:08:06.029Z,100106.56
2019-04-06T18:10:47.294Z,100111.87
2019-04-06T18:13:39.506Z,100109.23
2019-04-06T18:16:09.742Z,100110.72
2019-04-06T18:18:41.111Z,100118.98
2019-04-06T18:21:11.335Z,100123.50
2019-04-06T18:23:41.534Z,100121.30
2019-04-06T18:26:11.756Z,100124.05
2019-04-06T18:28:42.009Z,100130.12
2019-04-06T18:31:43.637Z,100121.39
2019-04-06T18:34:14.445Z,100126.65
2019-04-06T18:37:00.368Z,100130.12
2019-04-06T18:39:31.623Z,100132.16
2019-04-06T18:42:01.903Z,100128.92
2019-04-06T18:44:32.092Z,100133.31
2019-04-06T18:47:02.345Z,100137.03
2019-04-06T18:49:33.127Z,100138.73
2019-04-06T18:52:06.748Z,100132.06
2019-04-06T18:54:43.181Z,100132.43
2019-04-06T18:57:16.147Z,100134.45
2019-04-06T18:59:47.046Z,100135.55
2019-04-06T19:02:18.004Z,100134.53
2019-04-06T19:04:48.666Z,100128.03
2019-04-06T19:07:19.314Z,100134.00
2019-04-06T19:09:50.141Z,100132.80
2019-04-06T19:12:21.153Z,100133.51
2019-04-06T19:14:53.212Z,100136.33
2019-04-06T19:17:23.932Z,100136.28
2019-04-06T19:19:54.604Z,100134.38
2019-04-06T19:22:25.179Z,100133.42
2019-04-06T19:24:56.672Z,100135.09
2019-04-06T19:27:27.454Z,100139.32
2019-04-06T19:29:58.351Z,100142.18
2019-04-06T19:32:29.618Z,100137.98
2019-04-06T19:35:01.142Z,100131.52
2019-04-06T19:37:35.160Z,100131.50
2019-04-06T19:40:07.152Z,100135.50
2019-04-06T19:42:38.953Z,100136.51
2019-04-06T19:45:10.656Z,100135.44
2019-04-06T19:47:41.150Z,100131.41
2019-04-06T19:50:13.685Z,100132.02
2019-04-06T19:52:44.194Z,100135.45
2019-04-06T19:55:16.174Z,100137.41
2019-04-06T19:57:50.681Z,100135.64
2019-04-06T20:00:22.770Z,100142.74
2019-04-06T20:02:53.149Z,100135.05
2019-04-06T20:05:23.959Z,100133.38
2019-04-06T20:07:58.378Z,100132.34
2019-04-06T20:10:33.867Z,100132.67
2019-04-06T20:13:04.114Z,100136.67
2019-04-06T20:15:34.530Z,100139.88
2019-04-06T20:18:04.961Z,100133.74
2019-04-06T20:20:35.346Z,100136.95
2019-04-06T20:23:06.295Z,100134.55
2019-04-06T20:25:37.334Z,100135.23
2019-04-06T20:28:07.885Z,100128.80
2019-04-06T20:30:38.547Z,100135.19
2019-04-06T20:33:09.694Z,100125.20
2019-04-06T20:35:40.632Z,100128.41
2019-04-06T20:38:11.927Z,100122.88
2019-04-06T20:40:45.390Z,100124.42
2019-04-06T20:43:16.370Z,100127.19
2019-04-06T20:45:48.894Z,100129.58
2019-04-06T20:48:19.473Z,100127.88
2019-04-06T20:50:50.035Z,100125.14
2019-04-06T20:53:20.352Z,100128.45
2019-04-06T20:55:50.904Z,100126.20
2019-04-06T20:58:21.234Z,100128.14
2019-04-06T21:01:03.596Z,100125.69
2019-04-06T21:03:36.806Z,100125.08
2019-04-06T21:06:07.417Z,100128.94
2019-04-06T21:08:37.532Z,100131.97
2019-04-06T21:11:08.326Z,100127.12
2019-04-06T21:13:39.035Z,100123.00
2019-04-06T21:16:09.340Z,100124.94
2019-04-06T21:18:40.012Z,100128.59
2019-04-06T21:21:10.296Z,100128.25
2019-04-06T21:23:40.430Z,100127.20
2019-04-06T21:26:10.949Z,100128.42
2019-04-06T21:28:41.140Z,100132.75
2019-04-06T21:31:12.565Z,100126.75
2019-04-06T21:33:45.037Z,100129.67
2019-04-06T21:36:15.213Z,100129.71
2019-04-06T21:38:45.586Z,100121.94
2019-04-06T21:41:16.060Z,100123.34
2019-04-06T21:43:46.278Z,100121.09
2019-04-06T21:46:16.907Z,100127.53
2019-04-06T21:48:47.252Z,100122.98
2019-04-06T21:51:18.029Z,100125.94
2019-04-06T21:53:48.424Z,100123.83
2019-04-06T21:56:19.159Z,100125.50
2019-04-06T21:58:49.418Z,100129.77
2019-04-06T22:01:20.948Z,100129.08
2019-04-06T22:03:52.719Z,100126.55
2019-04-06T22:06:25.030Z,100130.66
2019-04-06T22:08:55.163Z,100133.42
2019-04-06T22:11:25.306Z,100134.95
2019-04-06T22:13:55.489Z,100135.36
2019-04-06T22:16:25.726Z,100132.64
2019-04-06T22:18:56.432Z,100128.30
2019-04-06T22:21:27.138Z,100130.75
2019-04-06T22:23:57.892Z,100129.45
2019-04-06T22:26:28.087Z,100127.83
2019-04-06T22:28:58.314Z,100128.52
2019-04-06T22:31:29.029Z,100127.76
2019-04-06T22:33:59.447Z,100131.42
2019-04-06T22:36:29.579Z,100125.95
2019-04-06T22:38:59.769Z,100126.30
2019-04-06T22:41:29.921Z,100128.09
2019-04-06T22:44:00.711Z,100123.83
2019-04-06T22:46:31.559Z,100128.72
2019-04-06T22:49:01.848Z,100131.81
2019-04-06T22:51:32.195Z,100134.16
2019-04-06T22:54:02.538Z,100124.09
2019-04-06T22:56:32.699Z,100129.23
2019-04-06T22:59:04.832Z,100125.93
2019-04-06T23:01:37.378Z,100129.50
2019-04-06T23:04:47.327Z,100130.23
2019-04-06T23:07:09.897Z,100132.09
2019-04-06T23:09:40.232Z,100133.06
2019-04-06T23:12:10.391Z,100134.48
2019-04-06T23:14:40.587Z,100132.30
2019-04-06T23:17:11.229Z,100131.94
2019-04-06T23:19:41.950Z,100131.53
2019-04-06T23:22:12.498Z,100140.93
2019-04-06T23:24:43.206Z,100144.06
2019-04-06T23:27:13.699Z,100140.62
2019-04-06T23:29:44.058Z,100138.45
2019-04-06T23:32:14.803Z,100146.83
2019-04-06T23:34:45.049Z,100144.41
2019-04-06T23:37:16.718Z,100142.14
2019-04-06T23:39:46.990Z,100143.83
2019-04-06T23:42:17.237Z,100142.61
2019-04-06T23:44:47.782Z,100140.48
2019-04-06T23:47:18.124Z,100139.48
2019-04-06T23:49:48.280Z,100140.20
2019-04-06T23:52:18.448Z,100145.83
2019-04-06T23:54:48.733Z,100143.95
2019-04-06T23:57:18.845Z,100149.27
2019-04-06T23:59:49.113Z,100147.14
